Time;durP1;ratioP1;P1;durP2;ratioP2;P2;SDS_P1;SDS_P2;PMS_P1;PMS_P2;Temp;Humidity;BMP_temperature;BMP_pressure;BME280_temperature;BME280_humidity;BME280_pressure;Samples;Min_cycle;Max_cycle;Signal;HPM_P1;HPM_P2
2023/10/06 00:03:31;;;;;;;6.70;5.33;;;;;;;;;;6208259;28;20192;-71
2023/10/06 00:06:32;;;;;;;5.70;4.80;;;;;;;;;;6211243;28;20201;-71
2023/10/06 00:09:33;;;;;;;5.77;4.40;;;;;;;;;;6195054;28;20216;-71
2023/10/06 00:12:34;;;;;;;8.37;4.87;;;;;;;;;;6206680;28;20225;-71
2023/10/06 00:15:38;;;;;;;5.40;4.43;;;;;;;;;;6196919;28;20187;-71
2023/10/06 00:18:39;;;;;;;5.40;4.90;;;;;;;;;;6221347;28;20187;-71
2023/10/06 00:21:45;;;;;;;5.50;4.90;;;;;;;;;;6199351;28;20189;-71
2023/10/06 00:24:50;;;;;;;7.17;4.80;;;;;;;;;;6204892;28;20336;-71
2023/10/06 00:27:51;;;;;;;5.13;4.33;;;;;;;;;;6223008;28;20205;-71
2023/10/06 00:31:06;;;;;;;6.03;4.53;;;;;;;;;;6203396;28;20198;-71
2023/10/06 00:34:10;;;;;;;5.90;4.53;;;;;;;;;;6211124;28;20185;-71
2023/10/06 00:37:11;;;;;;;7.03;5.40;;;;;;;;;;6199587;28;21266;-71
2023/10/06 00:40:24;;;;;;;7.47;5.03;;;;;;;;;;6215268;28;20192;-71
2023/10/06 00:43:34;;;;;;;6.60;4.87;;;;;;;;;;6216915;28;20186;-71
2023/10/06 00:46:36;;;;;;;5.80;4.87;;;;;;;;;;6214383;28;20185;-71
2023/10/06 00:49:38;;;;;;;5.20;4.73;;;;;;;;;;6200622;28;20297;-71
2023/10/06 00:52:40;;;;;;;5.33;4.83;;;;;;;;;;6198965;28;20184;-71
2023/10/06 00:55:44;;;;;;;5.73;4.87;;;;;;;;;;6204476;28;20191;-71
2023/10/06 00:58:45;;;;;;;8.97;6.13;;;;;;;;;;6203978;28;20194;-71
2023/10/06 01:01:46;;;;;;;7.47;5.30;;;;;;;;;;6201857;28;20189;-71
2023/10/06 01:04:52;;;;;;;5.50;5.00;;;;;;;;;;6200274;28;20200;-71
2023/10/06 01:07:53;;;;;;;6.97;4.53;;;;;;;;;;6215456;28;20209;-71
2023/10/06 01:11:11;;;;;;;7.43;4.83;;;;;;;;;;6199441;28;20192;-71
2023/10/06 01:14:14;;;;;;;5.77;5.17;;;;;;;;;;6220323;28;20221;-71
2023/10/06 01:17:16;;;;;;;5.67;4.70;;;;;;;;;;6213916;28;20192;-71
2023/10/06 01:21:13;;;;;;;7.13;5.17;;;;;;;;;;6201866;28;20191;-71
2023/10/06 01:23:39;;;;;;;7.07;4.90;;;;;;;;;;6224607;28;20243;-71
2023/10/06 01:26:44;;;;;;;7.63;5.53;;;;;;;;;;6204067;28;20645;-71
2023/10/06 01:29:45;;;;;;;6.93;4.50;;;;;;;;;;6228252;28;20276;-71
2023/10/06 01:32:50;;;;;;;7.70;4.70;;;;;;;;;;6203783;28;20203;-71
2023/10/06 01:35:51;;;;;;;6.93;5.37;;;;;;;;;;6211053;28;20218;-71
2023/10/06 01:38:52;;;;;;;7.97;4.70;;;;;;;;;;6200266;28;20198;-71
2023/10/06 01:41:53;;;;;;;7.40;4.93;;;;;;;;;;6205776;28;20276;-71
2023/10/06 01:44:58;;;;;;;6.47;4.97;;;;;;;;;;6223255;28;20188;-71
2023/10/06 01:51:15;;;;;;;6.03;5.10;;;;;;;;;;6225957;28;20192;-71
2023/10/06 01:54:16;;;;;;;6.53;4.70;;;;;;;;;;6211241;28;20238;-71
2023/10/06 01:57:17;;;;;;;8.33;4.90;;;;;;;;;;6193973;28;20206;-71
2023/10/06 02:00:26;;;;;;;6.63;4.90;;;;;;;;;;6211491;28;20240;-71
2023/10/06 02:03:37;;;;;;;6.17;4.70;;;;;;;;;;6220330;28;20313;-71
2023/10/06 02:06:41;;;;;;;5.77;4.90;;;;;;;;;;6212153;28;20246;-71
2023/10/06 02:09:42;;;;;;;7.23;5.00;;;;;;;;;;6204500;28;20216;-71
2023/10/06 02:12:44;;;;;;;5.80;4.37;;;;;;;;;;6224218;28;20176;-71
2023/10/06 02:15:46;;;;;;;4.87;4.37;;;;;;;;;;6200205;28;20188;-71
2023/10/06 02:18:47;;;;;;;5.70;4.67;;;;;;;;;;6235394;28;20190;-71
2023/10/06 02:21:51;;;;;;;5.43;4.53;;;;;;;;;;6214941;28;20213;-71
2023/10/06 02:24:52;;;;;;;6.17;4.80;;;;;;;;;;6238804;28;20268;-71
2023/10/06 02:27:53;;;;;;;5.63;4.63;;;;;;;;;;6210385;28;20226;-71
2023/10/06 02:30:55;;;;;;;5.57;4.63;;;;;;;;;;6210119;28;20199;-71
2023/10/06 02:33:56;;;;;;;5.77;4.57;;;;;;;;;;6211608;28;20192;-71
2023/10/06 02:36:57;;;;;;;5.27;4.63;;;;;;;;;;6214917;28;20193;-71
2023/10/06 02:39:59;;;;;;;5.70;4.63;;;;;;;;;;6227707;28;20286;-71
2023/10/06 02:43:07;;;;;;;5.47;4.80;;;;;;;;;;6211725;28;20198;-71
2023/10/06 02:46:08;;;;;;;7.60;4.73;;;;;;;;;;6213318;28;20187;-71
2023/10/06 02:49:10;;;;;;;5.57;4.37;;;;;;;;;;6215476;28;20293;-71
2023/10/06 02:52:15;;;;;;;7.23;5.20;;;;;;;;;;6231927;28;20197;-71
2023/10/06 02:55:20;;;;;;;6.57;4.67;;;;;;;;;;6216889;28;20198;-71
2023/10/06 02:58:27;;;;;;;5.67;5.03;;;;;;;;;;6227083;28;20194;-71
2023/10/06 03:01:29;;;;;;;5.90;5.00;;;;;;;;;;6221219;28;20314;-71
2023/10/06 03:04:35;;;;;;;6.27;4.87;;;;;;;;;;6236792;28;20287;-71
2023/10/06 03:07:38;;;;;;;5.47;4.70;;;;;;;;;;6219739;28;20214;-71
2023/10/06 03:10:43;;;;;;;5.97;4.13;;;;;;;;;;6226226;28;20278;-71
2023/10/06 03:13:46;;;;;;;7.17;5.03;;;;;;;;;;6217858;28;20194;-71
2023/10/06 03:17:04;;;;;;;6.90;4.73;;;;;;;;;;6205108;28;20270;-71
2023/10/06 03:20:11;;;;;;;7.80;4.83;;;;;;;;;;6236108;28;20187;-72
2023/10/06 03:23:32;;;;;;;6.00;4.10;;;;;;;;;;6219747;28;20226;-71
2023/10/06 03:26:38;;;;;;;4.97;4.10;;;;;;;;;;6214260;28;20195;-71
2023/10/06 03:32:51;;;;;;;9.67;4.60;;;;;;;;;;6232802;28;20176;-71
2023/10/06 03:35:54;;;;;;;6.63;4.77;;;;;;;;;;6218379;28;20200;-70
2023/10/06 03:39:05;;;;;;;5.03;3.97;;;;;;;;;;6204885;28;20191;-71
2023/10/06 03:42:11;;;;;;;5.33;4.33;;;;;;;;;;6210933;28;20199;-71
2023/10/06 03:45:18;;;;;;;8.53;4.30;;;;;;;;;;6206746;28;20187;-71
2023/10/06 03:48:24;;;;;;;5.33;4.10;;;;;;;;;;6207585;28;20231;-71
2023/10/06 03:51:26;;;;;;;5.13;3.93;;;;;;;;;;6198596;28;20194;-71
2023/10/06 03:54:27;;;;;;;6.90;4.67;;;;;;;;;;6193187;28;20188;-70
2023/10/06 03:57:28;;;;;;;4.80;4.30;;;24.00;50.00;;;;;;6222050;28;20249;-71
2023/10/06 04:00:28;;;;;;;5.57;3.97;;;12.80;88.20;;;;;;6209829;28;20196;-70
2023/10/06 04:03:29;;;;;;;6.90;4.60;;;12.80;88.40;;;;;;6198990;28;20202;-71
2023/10/06 04:06:34;;;;;;;6.00;4.67;;;12.80;88.90;;;;;;6186640;28;20194;-71
2023/10/06 04:09:36;;;;;;;5.60;4.47;;;12.80;88.20;;;;;;6205079;28;20286;-71
2023/10/06 04:12:36;;;;;;;6.27;4.20;;;12.70;88.30;;;;;;6192255;28;20206;-71
2023/10/06 04:15:38;;;;;;;7.30;4.10;;;12.60;88.30;;;;;;6218961;28;20267;-71
2023/10/06 04:18:40;;;;;;;5.27;3.80;;;12.50;88.30;;;;;;6179212;28;20207;-71
2023/10/06 04:21:42;;;;;;;5.63;3.83;;;12.50;88.40;;;;;;6194788;28;20194;-72
2023/10/06 04:24:44;;;;;;;8.17;4.40;;;12.50;88.00;;;;;;6204277;28;20241;-73
2023/10/06 04:27:46;;;;;;;5.90;4.67;;;12.50;87.90;;;;;;6193350;28;20215;-62
2023/10/06 04:30:47;;;;;;;7.50;4.20;;;;;;;;;;6186055;28;20210;-63
2023/10/06 04:33:50;;;;;;;5.80;4.43;;;;;;;;;;6208750;28;20195;-62
2023/10/06 04:36:55;;;;;;;7.40;4.80;;;;;;;;;;6211852;28;20213;-62
2023/10/06 04:39:57;;;;;;;6.40;4.33;;;;;;;;;;6211840;28;20187;-62
2023/10/06 04:42:59;;;;;;;6.47;3.83;;;;;;;;;;6211438;28;20233;-62
2023/10/06 04:46:00;;;;;;;5.40;4.30;;;;;;;;;;6228886;28;20187;-63
2023/10/06 04:49:02;;;;;;;6.97;4.50;;;;;;;;;;6211240;28;20206;-62
2023/10/06 04:52:03;;;;;;;5.30;4.17;;;;;;;;;;6205870;28;20191;-62
2023/10/06 04:55:04;;;;;;;5.47;4.20;;;;;;;;;;6206207;28;20310;-62
2023/10/06 04:58:06;;;;;;;6.73;4.37;;;;;;;;;;6214952;28;20202;-62
2023/10/06 05:01:07;;;;;;;4.77;4.10;;;;;;;;;;6228432;28;20206;-62
2023/10/06 05:04:09;;;;;;;5.53;4.13;;;;;;;;;;6206279;28;20207;-62
2023/10/06 05:07:10;;;;;;;6.43;4.53;;;;;;;;;;6215161;28;20203;-63
2023/10/06 05:10:11;;;;;;;5.20;4.30;;;;;;;;;;6213244;28;20204;-63
2023/10/06 05:13:14;;;;;;;5.93;4.60;;;;;;;;;;6207347;28;20209;-62
2023/10/06 05:16:15;;;;;;;5.90;4.27;;;;;;;;;;6193384;28;20221;-62
2023/10/06 05:19:17;;;;;;;5.20;3.87;;;;;;;;;;6186481;28;20199;-62
2023/10/06 05:22:18;;;;;;;5.57;4.47;;;;;;;;;;6204880;28;20195;-62
2023/10/06 05:25:19;;;;;;;4.67;3.90;;;;;;;;;;6204677;28;20246;-62
2023/10/06 05:28:21;;;;;;;6.30;4.93;;;;;;;;;;6211630;28;20210;-62
2023/10/06 05:31:22;;;;;;;5.40;3.90;;;;;;;;;;6196842;28;20194;-62
2023/10/06 05:34:24;;;;;;;5.27;4.30;;;;;;;;;;6202219;28;20216;-62
2023/10/06 05:37:25;;;;;;;5.43;3.97;;;;;;;;;;6195985;28;20202;-62
2023/10/06 05:40:29;;;;;;;6.03;4.47;;;;;;;;;;6207835;28;20238;-61
2023/10/06 05:43:31;;;;;;;7.60;4.00;;;;;;;;;;6207503;28;20214;-62
2023/10/06 05:46:32;;;;;;;6.17;3.87;;;;;;;;;;6209915;28;20186;-62
2023/10/06 05:49:33;;;;;;;6.87;4.30;;;;;;;;;;6213283;28;20207;-62
2023/10/06 05:52:38;;;;;;;6.37;4.43;;;;;;;;;;6209702;28;20192;-62
2023/10/06 05:55:43;;;;;;;7.07;4.53;;;;;;;;;;6202642;28;20274;-62
2023/10/06 05:58:44;;;;;;;9.27;4.47;;;;;;;;;;6219889;28;20187;-62
2023/10/06 06:01:46;;;;;;;5.90;4.30;;;;;;;;;;6215180;28;20226;-62
2023/10/06 06:04:48;;;;;;;10.37;6.10;;;;;;;;;;6208786;28;20187;-62
2023/10/06 06:07:51;;;;;;;12.77;7.00;;;;;;;;;;6211275;28;20218;-62
2023/10/06 06:10:52;;;;;;;7.87;6.30;;;;;;;;;;6236208;28;20229;-62
2023/10/06 06:13:56;;;;;;;6.20;4.77;;;;;;;;;;6216060;28;20201;-62
2023/10/06 06:16:58;;;;;;;9.40;5.00;;;;;;;;;;6212916;28;20337;-62
2023/10/06 06:19:59;;;;;;;6.87;5.10;;;;;;;;;;6210249;28;20230;-62
2023/10/06 06:23:02;;;;;;;7.47;4.83;;;;;;;;;;6206608;28;20250;-62
2023/10/06 06:26:04;;;;;;;6.40;4.50;;;;;;;;;;6211729;28;20182;-62
2023/10/06 06:29:08;;;;;;;7.87;4.50;;;;;;;;;;6208100;28;20314;-62
2023/10/06 06:32:11;;;;;;;6.47;4.20;;;;;;;;;;6224520;28;20191;-62
2023/10/06 06:35:13;;;;;;;6.33;5.00;;;;;;;;;;6197473;28;20201;-63
2023/10/06 06:38:17;;;;;;;6.00;4.43;;;;;;;;;;6206231;28;20197;-63
2023/10/06 06:41:19;;;;;;;6.93;4.60;;;;;;;;;;6233602;28;20274;-62
2023/10/06 06:44:20;;;;;;;11.97;4.73;;;;;;;;;;6209686;28;20196;-62
2023/10/06 06:47:25;;;;;;;9.70;5.07;;;;;;;;;;6211760;28;20216;-62
2023/10/06 06:50:26;;;;;;;6.80;4.53;;;;;;;;;;6209493;28;20188;-62
2023/10/06 06:53:27;;;;;;;5.27;4.70;;;;;;;;;;6209070;28;20198;-62
2023/10/06 06:56:31;;;;;;;9.70;5.23;;;;;;;;;;6207441;28;20523;-63
2023/10/06 06:59:32;;;;;;;7.03;5.60;;;;;;;;;;6209288;28;20223;-62
2023/10/06 07:02:34;;;;;;;6.80;4.63;;;;;;;;;;6210558;28;20195;-62
2023/10/06 07:05:35;;;;;;;10.43;5.57;;;;;;;;;;6206837;28;20198;-62
2023/10/06 07:08:36;;;;;;;9.23;5.17;;;;;;;;;;6225616;28;20205;-62
2023/10/06 07:11:37;;;;;;;8.07;5.17;;;;;;;;;;6220028;28;20191;-62
2023/10/06 07:14:38;;;;;;;10.27;4.80;;;;;;;;;;6205120;28;20305;-62
2023/10/06 07:17:39;;;;;;;9.57;5.10;;;;;;;;;;6210364;28;20202;-63
2023/10/06 07:20:40;;;;;;;6.27;5.00;;;;;;;;;;6207550;28;20188;-63
2023/10/06 07:23:42;;;;;;;8.87;5.23;;;;;;;;;;6206271;28;20241;-63
2023/10/06 07:26:43;;;;;;;7.17;5.67;;;;;;;;;;6207888;28;20198;-62
2023/10/06 07:29:44;;;;;;;8.40;5.70;;;;;;;;;;6193264;28;20218;-62
2023/10/06 07:32:46;;;;;;;6.67;5.33;;;;;;;;;;6206447;28;20203;-62
2023/10/06 07:35:48;;;;;;;6.70;5.13;;;;;;;;;;6227416;28;20182;-63
2023/10/06 07:38:49;;;;;;;10.47;6.00;;;;;;;;;;6211545;28;20195;-62
2023/10/06 07:41:50;;;;;;;9.23;5.80;;;;;;;;;;6208834;28;20190;-62
2023/10/06 07:44:51;;;;;;;8.17;5.40;;;;;;;;;;6210660;28;20206;-63
2023/10/06 07:47:54;;;;;;;6.63;4.97;;;;;;;;;;6214148;28;20210;-62
2023/10/06 07:51:02;;;;;;;10.23;5.37;;;;;;;;;;6203050;28;20192;-62
2023/10/06 07:54:04;;;;;;;8.97;5.40;;;;;;;;;;6211684;28;20221;-62
2023/10/06 07:57:05;;;;;;;9.17;5.00;;;;;;;;;;6203323;28;20184;-62
2023/10/06 08:00:07;;;;;;;7.33;5.47;;;;;;;;;;6208390;28;20191;-62
2023/10/06 08:03:08;;;;;;;8.33;5.47;;;;;;;;;;6203241;28;20215;-63
2023/10/06 08:06:10;;;;;;;11.13;5.87;;;;;;;;;;6209111;28;20280;-62
2023/10/06 08:09:12;;;;;;;7.87;5.17;;;;;;;;;;6242598;28;20236;-62
2023/10/06 08:12:13;;;;;;;7.40;5.20;;;;;;;;;;6208828;28;20285;-63
2023/10/06 08:15:17;;;;;;;9.00;5.77;;;;;;;;;;6194438;28;20290;-62
2023/10/06 08:18:19;;;;;;;9.10;5.33;;;;;;;;;;6200093;28;20215;-63
2023/10/06 08:21:21;;;;;;;7.53;4.70;;;;;;;;;;6208028;28;20209;-63
2023/10/06 08:24:22;;;;;;;10.10;5.57;;;;;;;;;;6209200;28;20242;-62
2023/10/06 08:27:23;;;;;;;9.23;4.93;;;;;;;;;;6204277;28;20191;-63
2023/10/06 08:30:26;;;;;;;9.13;5.67;;;;;;;;;;6210429;28;20210;-62
2023/10/06 08:33:27;;;;;;;8.40;5.07;;;;;;;;;;6223027;28;20205;-62
2023/10/06 08:36:28;;;;;;;8.77;5.60;;;;;;;;;;6208689;28;20198;-62
2023/10/06 08:39:38;;;;;;;9.23;5.00;;;;;;;;;;6203422;28;20194;-62
2023/10/06 08:42:40;;;;;;;7.43;4.60;;;;;;;;;;6207138;28;20207;-63
2023/10/06 08:45:41;;;;;;;9.90;4.60;;;;;;;;;;6230353;28;20191;-62
2023/10/06 08:48:42;;;;;;;7.30;4.93;;;;;;;;;;6208209;28;20221;-62
2023/10/06 08:51:50;;;;;;;9.77;4.60;;;;;;;;;;6204278;28;20191;-62
2023/10/06 08:54:51;;;;;;;7.53;4.60;;;;;;;;;;6222414;28;20185;-63
2023/10/06 08:57:53;;;;;;;7.53;4.87;;;;;;;;;;6199528;28;20222;-63
2023/10/06 09:00:55;;;;;;;11.07;5.40;;;;;;;;;;6222148;28;20191;-62
2023/10/06 09:04:02;;;;;;;6.17;4.50;;;;;;;;;;6207142;28;20191;-62
2023/10/06 09:07:12;;;;;;;8.20;4.03;;;;;;;;;;6224702;28;20231;-62
2023/10/06 09:10:17;;;;;;;6.30;4.17;;;;;;;;;;6230724;28;20299;-62
2023/10/06 09:13:19;;;;;;;10.33;5.20;;;;;;;;;;6209388;28;20206;-63
2023/10/06 09:16:20;;;;;;;9.50;5.60;;;;;;;;;;6228263;28;20187;-62
2023/10/06 09:19:21;;;;;;;9.40;5.77;;;24.00;50.00;;;;;;6221495;28;20189;-62
2023/10/06 09:22:28;;;;;;;8.87;5.20;;;14.90;72.30;;;;;;6198375;28;20218;-62
2023/10/06 09:25:45;;;;;;;8.83;5.73;;;14.90;72.70;;;;;;6195446;28;20252;-62
2023/10/06 09:28:53;;;;;;;8.77;5.40;;;14.90;73.40;;;;;;6212966;28;20222;-63
2023/10/06 09:31:57;;;;;;;8.87;5.67;;;14.90;73.60;;;;;;6233414;28;20301;-62
2023/10/06 09:34:58;;;;;;;9.80;5.07;;;15.00;73.80;;;;;;6196024;28;20199;-62
2023/10/06 09:38:11;;;;;;;7.93;5.47;;;;;;;;;;6192110;28;20190;-62
2023/10/06 09:41:13;;;;;;;9.30;5.77;;;;;;;;;;6233620;28;20326;-63
2023/10/06 09:44:17;;;;;;;10.10;5.67;;;;;;;;;;6202302;28;20196;-62
2023/10/06 09:47:18;;;;;;;9.77;5.60;;;;;;;;;;6209082;28;20219;-62
2023/10/06 09:50:20;;;;;;;8.90;5.33;;;;;;;;;;6199889;28;20283;-63
2023/10/06 09:53:21;;;;;;;8.63;5.83;;;;;;;;;;6229358;28;20219;-63
2023/10/06 09:56:22;;;;;;;8.93;6.20;;;;;;;;;;6219320;28;20194;-62
2023/10/06 09:59:26;;;;;;;8.73;6.00;;;;;;;;;;6206321;28;20282;-62
2023/10/06 10:02:29;;;;;;;10.23;6.50;;;;;;;;;;6221969;28;20191;-62
2023/10/06 10:05:31;;;;;;;7.97;5.93;;;;;;;;;;6219924;28;20192;-63
2023/10/06 10:08:33;;;;;;;11.57;6.73;;;;;;;;;;6222302;28;20215;-62
2023/10/06 10:11:39;;;;;;;10.63;6.43;;;;;;;;;;6225961;28;20194;-63
2023/10/06 10:14:59;;;;;;;6.27;4.70;;;;;;;;;;6206087;28;20195;-62
2023/10/06 10:18:20;;;;;;;9.53;6.40;;;;;;;;;;6228603;28;20195;-62
2023/10/06 10:21:22;;;;;;;9.03;5.47;;;;;;;;;;6214852;28;20233;-62
2023/10/06 10:24:23;;;;;;;6.70;5.10;;;;;;;;;;6209573;28;20242;-62
2023/10/06 10:27:24;;;;;;;9.27;5.90;;;;;;;;;;6225989;28;20187;-62
2023/10/06 10:30:46;;;;;;;6.23;4.23;;;;;;;;;;6195537;28;20198;-63
2023/10/06 10:33:47;;;;;;;5.83;4.40;;;;;;;;;;6225442;28;20202;-62
2023/10/06 10:36:49;;;;;;;9.73;6.13;;;;;;;;;;6211421;28;20175;-63
2023/10/06 10:39:50;;;;;;;7.43;5.30;;;;;;;;;;6226893;28;20191;-62
2023/10/06 10:43:03;;;;;;;9.30;5.97;;;;;;;;;;6226156;28;20183;-63
2023/10/06 10:46:06;;;;;;;8.13;5.10;;;;;;;;;;6220964;28;20204;-63
2023/10/06 10:49:09;;;;;;;7.93;5.27;;;;;;;;;;6225722;28;20357;-63
2023/10/06 10:52:11;;;;;;;7.23;4.97;;;;;;;;;;6222735;28;20190;-65
2023/10/06 10:55:13;;;;;;;6.57;4.33;;;;;;;;;;6196835;28;20245;-63
2023/10/06 10:58:37;;;;;;;5.83;4.67;;;;;;;;;;6203903;28;20202;-63
2023/10/06 11:01:38;;;;;;;6.63;4.53;;;;;;;;;;6208788;28;20201;-64
2023/10/06 11:04:42;;;;;;;10.50;5.17;;;;;;;;;;6200956;28;20191;-65
2023/10/06 11:07:53;;;;;;;9.27;4.90;;;;;;;;;;6225140;28;20233;-63
2023/10/06 11:10:59;;;;;;;7.13;4.10;;;;;;;;;;6231724;28;20215;-62
2023/10/06 11:14:00;;;;;;;7.87;5.07;;;15.00;73.70;;;;;;6208356;28;20190;-63
2023/10/06 11:17:05;;;;;;;7.77;5.27;;;17.00;70.70;;;;;;6185502;28;20191;-62
2023/10/06 11:20:15;;;;;;;6.53;4.70;;;17.20;68.30;;;;;;6184229;28;20196;-63
2023/10/06 11:23:17;;;;;;;8.73;5.07;;;;;;;;;;6220349;28;20228;-62
2023/10/06 11:26:28;;;;;;;8.40;5.13;;;;;;;;;;6200576;28;20211;-63
2023/10/06 11:29:30;;;;;;;9.73;5.50;;;;;;;;;;6226016;28;20220;-63
2023/10/06 11:32:32;;;;;;;7.50;4.93;;;;;;;;;;6203475;28;20198;-63
2023/10/06 11:35:33;;;;;;;7.07;4.67;;;;;;;;;;6207930;28;20279;-63
2023/10/06 11:38:36;;;;;;;6.47;4.53;;;;;;;;;;6209379;28;20206;-63
2023/10/06 11:41:37;;;;;;;5.70;4.27;;;;;;;;;;6209077;28;20199;-63
2023/10/06 11:44:39;;;;;;;7.63;4.63;;;17.20;69.10;;;;;;6191211;28;20206;-63
2023/10/06 11:47:41;;;;;;;8.10;4.50;;;;;;;;;;6199471;28;20201;-63
2023/10/06 11:50:42;;;;;;;8.07;5.03;;;;;;;;;;6224566;28;20199;-63
2023/10/06 11:53:44;;;;;;;7.90;4.77;;;;;;;;;;6205259;28;20222;-63
2023/10/06 11:56:49;;;;;;;7.63;4.60;;;;;;;;;;6205178;28;20197;-63
2023/10/06 11:59:51;;;;;;;6.23;4.73;;;;;;;;;;6208948;28;20203;-63
2023/10/06 12:02:53;;;;;;;7.53;4.27;;;;;;;;;;6216127;28;20224;-63
2023/10/06 12:05:57;;;;;;;10.60;5.50;;;;;;;;;;6225192;28;20195;-63
2023/10/06 12:08:58;;;;;;;7.20;4.20;;;;;;;;;;6226950;28;20207;-63
2023/10/06 12:12:01;;;;;;;6.10;4.90;;;;;;;;;;6209388;28;20223;-63
2023/10/06 12:15:02;;;;;;;8.43;4.70;;;;;;;;;;6227163;28;20218;-63
2023/10/06 12:18:04;;;;;;;5.80;4.27;;;;;;;;;;6220671;28;20193;-63
2023/10/06 12:21:11;;;;;;;7.70;4.90;;;;;;;;;;6224864;28;20199;-63
2023/10/06 12:24:12;;;;;;;6.37;3.90;;;;;;;;;;6218326;28;20257;-63
2023/10/06 12:27:17;;;;;;;5.03;4.03;;;;;;;;;;6192985;28;20202;-61
2023/10/06 12:30:19;;;;;;;5.93;4.27;;;;;;;;;;6197816;28;20229;-62
2023/10/06 12:33:20;;;;;;;5.47;4.20;;;;;;;;;;6225772;28;20186;-62
2023/10/06 12:36:22;;;;;;;5.63;3.57;;;;;;;;;;6205602;28;20199;-63
2023/10/06 12:39:34;;;;;;;6.67;4.07;;;;;;;;;;6205489;28;20195;-65
2023/10/06 12:42:38;;;;;;;7.97;5.33;;;21.10;56.50;;;;;;6205262;28;20196;-65
2023/10/06 12:45:39;;;;;;;6.03;3.83;;;20.80;55.30;;;;;;6187559;28;20196;-63
2023/10/06 12:48:39;;;;;;;6.37;4.07;;;20.90;55.50;;;;;;6195336;28;20238;-62
2023/10/06 12:51:41;;;;;;;4.63;3.73;;;20.90;57.50;;;;;;6195603;28;20271;-63
2023/10/06 12:54:44;;;;;;;6.00;4.23;;;20.90;57.00;;;;;;6203628;28;20277;-62
2023/10/06 12:57:45;;;;;;;5.60;4.33;;;21.00;57.40;;;;;;6187582;28;20187;-63
2023/10/06 13:00:45;;;;;;;6.67;3.97;;;21.10;57.70;;;;;;6210565;28;20262;-63
2023/10/06 13:03:46;;;;;;;4.53;3.60;;;21.20;57.60;;;;;;6197527;28;20244;-63
2023/10/06 13:06:48;;;;;;;6.83;4.30;;;21.30;58.40;;;;;;6211567;28;20262;-63
2023/10/06 13:09:49;;;;;;;6.03;4.73;;;21.30;56.90;;;;;;6218564;28;20214;-63
2023/10/06 13:12:51;;;;;;;7.77;4.90;;;21.30;53.10;;;;;;6206291;28;20194;-63
2023/10/06 13:15:52;;;;;;;9.77;4.70;;;21.30;53.80;;;;;;6202344;28;20187;-63
2023/10/06 13:18:54;;;;;;;5.07;3.67;;;;;;;;;;6208737;28;20201;-62
2023/10/06 13:21:56;;;;;;;5.27;3.90;;;;;;;;;;6203990;28;20194;-63
2023/10/06 13:24:57;;;;;;;9.40;3.73;;;;;;;;;;6202073;28;20245;-63
2023/10/06 13:27:58;;;;;;;6.00;3.67;;;;;;;;;;6202716;28;20313;-63
2023/10/06 13:30:59;;;;;;;6.13;4.17;;;;;;;;;;6202782;28;20192;-63
2023/10/06 13:34:00;;;;;;;5.20;3.93;;;;;;;;;;6192994;28;20199;-63
2023/10/06 13:37:01;;;;;;;4.90;3.67;;;;;;;;;;6214291;28;20194;-63
2023/10/06 13:40:02;;;;;;;6.83;4.20;;;30.90;38.30;;;;;;6201000;28;20198;-63
2023/10/06 13:43:06;;;;;;;7.80;4.53;;;31.20;37.80;;;;;;6194616;28;20186;-63
2023/10/06 13:46:07;;;;;;;3.93;3.20;;;31.70;36.90;;;;;;6186890;28;20200;-63
2023/10/06 13:49:08;;;;;;;4.80;3.60;;;32.50;36.00;;;;;;6190322;28;20222;-63
2023/10/06 13:52:10;;;;;;;4.63;3.63;;;;;;;;;;6181024;28;20192;-63
2023/10/06 13:55:12;;;;;;;4.17;3.70;;;;;;;;;;6223520;28;20219;-63
2023/10/06 13:58:13;;;;;;;4.73;3.77;;;;;;;;;;6219022;28;20206;-63
2023/10/06 14:01:14;;;;;;;4.97;3.60;;;;;;;;;;6207080;28;20198;-63
2023/10/06 14:04:15;;;;;;;5.10;3.87;;;32.80;35.10;;;;;;6199082;28;20199;-63
2023/10/06 14:07:17;;;;;;;4.00;3.60;;;32.80;35.50;;;;;;6187161;28;20277;-63
2023/10/06 14:10:21;;;;;;;8.23;4.07;;;32.50;36.00;;;;;;6216214;28;20347;-63
2023/10/06 14:13:27;;;;;;;4.97;3.83;;;32.60;35.60;;;;;;6195677;28;20218;-63
2023/10/06 14:16:28;;;;;;;6.20;3.60;;;32.80;35.90;;;;;;6210378;28;20198;-63
2023/10/06 14:19:29;;;;;;;8.37;4.23;;;;;;;;;;6187006;28;20187;-63
2023/10/06 14:22:33;;;;;;;7.50;3.83;;;32.40;35.20;;;;;;6205965;28;20199;-63
2023/10/06 14:25:35;;;;;;;3.90;3.17;;;;;;;;;;6230991;28;20192;-62
2023/10/06 14:28:37;;;;;;;5.13;4.10;;;;;;;;;;6207801;28;20222;-62
2023/10/06 14:31:47;;;;;;;6.23;4.00;;;;;;;;;;6230606;28;20182;-63
2023/10/06 14:35:12;;;;;;;5.43;3.50;;;;;;;;;;6216179;28;20199;-62
2023/10/06 14:48:13;;;;;;;6.10;3.67;;;25.40;47.20;;;;;;6208017;28;20215;-62
2023/10/06 14:51:14;;;;;;;4.77;3.20;;;;;;;;;;6207184;28;20279;-62
2023/10/06 14:54:15;;;;;;;6.87;4.27;;;;;;;;;;6208981;28;20195;-62
2023/10/06 14:57:16;;;;;;;5.77;3.50;;;;;;;;;;6232777;28;20270;-62
2023/10/06 15:00:17;;;;;;;6.13;3.63;;;;;;;;;;6234337;28;20224;-62
2023/10/06 15:03:18;;;;;;;5.63;3.53;;;;;;;;;;6204892;28;20194;-62
2023/10/06 15:06:20;;;;;;;6.77;3.90;;;;;;;;;;6207664;28;20202;-62
2023/10/06 15:09:21;;;;;;;6.60;3.83;;;;;;;;;;6212602;28;20223;-62
2023/10/06 15:12:25;;;;;;;5.20;3.77;;;;;;;;;;6205839;28;20194;-62
2023/10/06 15:15:28;;;;;;;4.27;3.60;;;;;;;;;;6224004;28;20187;-62
2023/10/06 15:18:30;;;;;;;6.60;3.47;;;;;;;;;;6215350;28;20202;-62
2023/10/06 15:21:34;;;;;;;6.37;3.70;;;;;;;;;;6207526;28;20333;-62
2023/10/06 15:24:36;;;;;;;4.97;3.63;;;;;;;;;;6201392;28;20269;-62
2023/10/06 15:27:37;;;;;;;5.80;3.63;;;23.50;52.50;;;;;;6212032;28;20197;-62
2023/10/06 15:30:41;;;;;;;4.73;3.73;;;;;;;;;;6201179;28;20199;-62
2023/10/06 15:33:46;;;;;;;6.33;4.30;;;;;;;;;;6230623;28;20265;-62
2023/10/06 15:36:47;;;;;;;6.47;3.10;;;;;;;;;;6247126;28;20221;-62
2023/10/06 15:39:48;;;;;;;5.40;3.73;;;;;;;;;;6221809;28;20227;-62
2023/10/06 15:42:49;;;;;;;4.77;3.27;;;;;;;;;;6248460;28;20183;-62
2023/10/06 15:45:58;;;;;;;3.60;3.20;;;;;;;;;;6211967;28;20199;-62
2023/10/06 15:48:59;;;;;;;6.40;3.73;;;;;;;;;;6241068;28;20203;-62
2023/10/06 15:52:00;;;;;;;4.87;3.30;;;;;;;;;;6204049;28;20211;-62
2023/10/06 15:55:01;;;;;;;4.43;3.17;;;;;;;;;;6230285;28;20243;-62
2023/10/06 15:58:06;;;;;;;4.93;3.60;;;;;;;;;;6224002;28;20194;-63
2023/10/06 16:01:08;;;;;;;5.40;3.20;;;;;;;;;;6215291;28;20198;-62
2023/10/06 16:04:10;;;;;;;4.90;3.50;;;;;;;;;;6222104;28;20190;-62
2023/10/06 16:07:13;;;;;;;5.67;3.47;;;;;;;;;;6223668;28;20191;-62
2023/10/06 16:10:22;;;;;;;6.80;3.70;;;;;;;;;;6220611;28;20215;-62
2023/10/06 16:13:23;;;;;;;5.60;3.73;;;;;;;;;;6221796;28;20197;-62
2023/10/06 16:16:24;;;;;;;5.70;3.70;;;;;;;;;;6210361;28;20251;-62
2023/10/06 16:19:25;;;;;;;6.23;4.00;;;;;;;;;;6210871;28;20198;-62
2023/10/06 16:22:27;;;;;;;5.90;3.73;;;;;;;;;;6208752;28;20199;-62
2023/10/06 16:25:29;;;;;;;5.53;3.83;;;;;;;;;;6208087;28;20222;-62
2023/10/06 16:28:30;;;;;;;4.87;3.87;;;;;;;;;;6208054;28;20301;-62
2023/10/06 16:31:32;;;;;;;5.87;3.67;;;;;;;;;;6231792;28;20207;-62
2023/10/06 16:34:33;;;;;;;5.60;4.30;;;;;;;;;;6202535;28;20243;-62
2023/10/06 16:37:34;;;;;;;5.97;4.07;;;;;;;;;;6212123;28;20277;-63
2023/10/06 16:40:36;;;;;;;7.87;3.83;;;;;;;;;;6194733;28;20199;-62
2023/10/06 16:43:37;;;;;;;8.77;3.67;;;;;;;;;;6216160;28;20202;-62
2023/10/06 16:46:38;;;;;;;6.47;3.70;;;;;;;;;;6213239;28;20205;-62
2023/10/06 16:49:39;;;;;;;4.90;3.50;;;;;;;;;;6207363;28;20265;-62
2023/10/06 16:52:40;;;;;;;6.70;4.00;;;;;;;;;;6209120;28;20191;-63
2023/10/06 16:55:41;;;;;;;6.80;4.17;;;;;;;;;;6214612;28;20197;-62
2023/10/06 16:58:42;;;;;;;7.93;3.47;;;;;;;;;;6204848;28;20287;-62
2023/10/06 17:01:43;;;;;;;6.00;3.90;;;;;;;;;;6213966;28;20222;-62
2023/10/06 17:04:44;;;;;;;5.00;3.73;;;;;;;;;;6207703;28;20226;-62
2023/10/06 17:07:45;;;;;;;4.77;3.23;;;;;;;;;;6209626;28;20269;-63
2023/10/06 17:10:46;;;;;;;7.20;3.80;;;;;;;;;;6226570;28;20194;-62
2023/10/06 17:13:49;;;;;;;6.07;3.60;;;;;;;;;;6217607;28;20228;-62
2023/10/06 17:16:52;;;;;;;5.47;3.57;;;;;;;;;;6225656;28;20241;-62
2023/10/06 17:19:53;;;;;;;7.27;4.00;;;;;;;;;;6231652;28;20207;-62
2023/10/06 17:22:55;;;;;;;7.67;4.13;;;;;;;;;;6209830;28;20261;-62
2023/10/06 17:25:57;;;;;;;8.73;4.40;;;;;;;;;;6200617;28;20280;-62
2023/10/06 17:28:58;;;;;;;5.07;4.07;;;;;;;;;;6206780;28;20299;-62
2023/10/06 17:32:01;;;;;;;6.10;4.40;;;;;;;;;;6221602;28;20203;-63
2023/10/06 17:35:03;;;;;;;6.57;4.13;;;;;;;;;;6209257;28;20180;-63
2023/10/06 17:38:07;;;;;;;5.47;4.10;;;;;;;;;;6209068;28;20195;-63
2023/10/06 17:41:13;;;;;;;6.33;3.70;;;;;;;;;;6205252;28;20199;-63
2023/10/06 17:44:14;;;;;;;6.07;4.30;;;;;;;;;;6213652;28;20196;-63
2023/10/06 17:47:16;;;;;;;7.70;4.53;;;;;;;;;;6229773;28;20198;-63
2023/10/06 17:50:17;;;;;;;5.67;4.20;;;;;;;;;;6224516;28;20210;-62
2023/10/06 17:53:18;;;;;;;6.57;3.90;;;;;;;;;;6205739;28;20195;-62
2023/10/06 17:56:20;;;;;;;7.87;4.27;;;;;;;;;;6215130;28;20225;-63
2023/10/06 17:59:21;;;;;;;9.27;3.97;;;;;;;;;;6226852;28;20227;-63
2023/10/06 18:02:24;;;;;;;5.10;3.93;;;;;;;;;;6206471;28;20205;-63
2023/10/06 18:05:25;;;;;;;7.07;4.57;;;;;;;;;;6210823;28;20203;-63
2023/10/06 18:08:27;;;;;;;12.67;5.23;;;;;;;;;;6221334;28;20264;-64
2023/10/06 18:11:29;;;;;;;5.73;4.23;;;;;;;;;;6224017;28;20197;-62
2023/10/06 18:14:31;;;;;;;5.93;4.37;;;;;;;;;;6218130;28;20213;-65